Bookmark and Share
Track history (hours):
 

Tzoanna Vi

Last reported at 2014-Apr-15 02:34 UTC. Time now 2014-Apr-18 10:47 UTC.
Position N 37°38' E 024°37'.

Length 84 m; draft 5.4 m.

Type: Cargo ship. MMSI: 237991700.

NotesDate/timePositionNaut miles runAvg speedWind from/ knotsBaromVisibWave heightAir tempDewpointWater temp
2014-Apr-15 02:34N 37°38' E 024°37'9 8.7
2014-Apr-15 01:33N 37°29' E 024°40'9 8.7
2014-Apr-15 00:33N 37°21' E 024°43'9 8.9
2014-Apr-14 23:33N 37°12' E 024°46'9 8.7
2014-Apr-14 22:33N 37°04' E 024°49'9 8.6
2014-Apr-14 21:33N 36°55' E 024°52'9 8.7
2014-Apr-14 20:33N 36°47' E 024°55'9 8.6
2014-Apr-14 19:32N 36°39' E 024°58'8 8.5
2014-Apr-14 18:33N 36°31' E 025°03'9 8.7
2014-Apr-14 17:34N 36°24' E 025°09'8 8.3
2014-Apr-14 16:33N 36°17' E 025°14'8 8.6
2014-Apr-14 15:34N 36°09' E 025°19'9 8.8
2014-Apr-14 14:33N 36°02' E 025°24'9 8.8
2014-Apr-14 13:33N 35°54' E 025°29'14 0.4
2014-Apr-12 21:33N 35°45' E 025°42'7 7.2
2014-Apr-12 20:33N 35°50' E 025°37'8 7.6
2014-Apr-12 19:32N 35°57' E 025°31'8 7.8
2014-Apr-12 18:33N 36°03' E 025°26'8 8.1
2014-Apr-12 17:33N 36°10' E 025°21'8 8.1
2014-Apr-12 16:33N 36°17' E 025°16'8 8.3
2014-Apr-12 15:33N 36°24' E 025°10'8 8.5
2014-Apr-12 14:33N 36°30' E 025°03'8 8.4
2014-Apr-12 13:33N 36°38' E 024°58'9 8.5
2014-Apr-12 12:33N 36°46' E 024°55'9 8.5
2014-Apr-12 11:33N 36°54' E 024°52'8 8.4
2014-Apr-12 10:33N 37°02' E 024°50'8 8.3
2014-Apr-12 09:33N 37°10' E 024°47'8 8.2
2014-Apr-12 08:32N 37°18' E 024°44'8 8.3
2014-Apr-12 07:33N 37°26' E 024°41'8 8.3
2014-Apr-12 06:33N 37°34' E 024°38'9 8.6
2014-Apr-12 05:32N 37°43' E 024°37'  
2014-Apr-08 17:33N 37°31' E 024°23'25 8.3
2014-Apr-08 14:31N 37°06' E 024°19'9 8.4
2014-Apr-08 13:29N 36°57' E 024°19'7 7.7
2014-Apr-08 12:32N 36°50' E 024°19'8 7.7
2014-Apr-08 11:32N 36°42' E 024°18'4 4.0
2014-Apr-08 10:33N 36°39' E 024°21'0 0.0
2014-Apr-08 09:32N 36°39' E 024°21'0 0.0
2014-Apr-08 08:33N 36°39' E 024°21'0 0.0
2014-Apr-08 07:33N 36°39' E 024°21'0 0.0
2014-Apr-08 06:33N 36°39' E 024°21'0 0.0
2014-Apr-08 05:33N 36°39' E 024°21'0 0.4
2014-Apr-08 04:33N 36°39' E 024°21'3 2.9
2014-Apr-08 03:33N 36°37' E 024°25'6 5.8
2014-Apr-08 02:33N 36°36' E 024°32'6 5.9
2014-Apr-08 01:33N 36°34' E 024°39'6 6.5
2014-Apr-08 00:33N 36°32' E 024°46'7 6.5
2014-Apr-07 23:33N 36°30' E 024°54'7 6.6
2014-Apr-07 22:33N 36°27' E 025°01'7 6.6
2014-Apr-07 21:33N 36°25' E 025°09'7 7.2
2014-Apr-07 20:33N 36°23' E 025°18'7 6.6
2014-Apr-07 19:33N 36°23' E 025°26'0 0.0
2014-Apr-07 17:33N 36°23' E 025°26'0 0.0
2014-Apr-07 16:33N 36°23' E 025°26'0 0.0
2014-Apr-07 15:33N 36°23' E 025°26'0 0.0
2014-Apr-07 14:33N 36°23' E 025°26'0 0.0
2014-Apr-07 13:33N 36°23' E 025°26'0 0.0
2014-Apr-07 12:33N 36°23' E 025°26'0 0.0
2014-Apr-07 11:33N 36°23' E 025°26'0 0.0
2014-Apr-07 10:33N 36°23' E 025°26'0 0.0
2014-Apr-07 09:33N 36°23' E 025°26'0 0.0
2014-Apr-07 08:33N 36°23' E 025°26'0 0.0
2014-Apr-07 07:33N 36°23' E 025°26'0 0.0
2014-Apr-07 06:33N 36°23' E 025°26'0 0.0
2014-Apr-07 05:33N 36°23' E 025°26'0 0.0
2014-Apr-07 04:33N 36°23' E 025°26'1 1.4
2014-Apr-07 03:33N 36°24' E 025°25'6 5.8
2014-Apr-07 02:33N 36°29' E 025°20'5 4.7
2014-Apr-07 01:33N 36°30' E 025°14'6 6.1
2014-Apr-07 00:33N 36°33' E 025°07'6 6.1
2014-Apr-06 23:33N 36°35' E 025°01'7 6.6
2014-Apr-06 22:33N 36°41' E 024°57'7 7.0
2014-Apr-06 21:33N 36°48' E 024°54'7 7.2
2014-Apr-06 20:33N 36°55' E 024°52'7 7.1
2014-Apr-06 19:33N 37°02' E 024°50'7 7.3
2014-Apr-06 18:33N 37°09' E 024°48'7 7.2
2014-Apr-06 17:33N 37°16' E 024°45'7 7.4
2014-Apr-06 16:33N 37°23' E 024°43'8 7.9
2014-Apr-06 15:33N 37°30' E 024°40'8 7.8
2014-Apr-06 14:33N 37°38' E 024°38'9 8.2
2014-Apr-06 13:29N 37°47' E 024°38'  

Dump ship's entire track history

sailing weather and tide predictions

Tzoanna Vi — SYHY — position and weather